Time;durP1;ratioP1;P1;durP2;ratioP2;P2;SDS_P1;SDS_P2;PMS_P1;PMS_P2;Temp;Humidity;BMP_temperature;BMP_pressure;BME280_temperature;BME280_humidity;BME280_pressure;Samples;Min_cycle;Max_cycle;Signal;HPM_P1;HPM_P2
2023/08/22 00:00:44;;;;;;;;;;;;;;;-140.72;91.33;52494.34;6278710;22;20252;-68
2023/08/22 00:03:09;;;;;;;;;;;;;;;-140.72;93.41;52498.41;6278042;22;19918;-68
2023/08/22 00:05:34;;;;;;;;;;;;;;;-140.72;91.54;52504.50;6278934;22;19911;-68
2023/08/22 00:08:00;;;;;;;;;;;;;;;-140.72;90.24;52478.13;6278414;22;19912;-68
2023/08/22 00:10:25;;;;;;;;;;;;;;;-140.72;91.86;52506.53;6302644;22;19912;-68
2023/08/22 00:12:50;;;;;;;;;;;;;;;-140.72;94.26;52514.63;6278133;22;19919;-69
2023/08/22 00:15:16;;;;;;;;;;;;;;;-140.72;92.18;52498.41;6278406;22;20398;-68
2023/08/22 00:17:41;;;;;;;;;;;;;;;-140.72;88.76;52504.50;6278338;22;20336;-68
2023/08/22 00:20:11;;;;;;;;;;;;;;;-140.72;88.23;52516.66;6278259;22;20351;-68
2023/08/22 00:22:37;;;;;;;;;;;;;;;-140.72;86.23;52476.09;6278486;22;19911;-68
2023/08/22 00:25:02;;;;;;;;;;;;;;;-140.72;83.21;52496.38;6276798;22;19912;-69
2023/08/22 00:27:28;;;;;;;;;;;;;;;-140.72;80.49;52516.66;6278122;22;19953;-68
2023/08/22 00:29:53;;;;;;;;;;;;;;;-140.72;79.50;52520.72;6278062;22;19916;-68
2023/08/22 00:32:31;;;;;;;;;;;;;;;-140.72;79.90;52502.47;6277107;22;19911;-69
2023/08/22 00:34:56;;;;;;;;;;;;;;;-140.72;81.29;52528.84;6276628;22;20349;-68
2023/08/22 00:37:24;;;;;;;;;;;;;;;-140.72;81.99;52510.59;6278217;22;19943;-68
2023/08/22 00:39:49;;;;;;;;;;;;;;;-140.72;83.66;52492.31;6278020;22;20219;-69
2023/08/22 00:42:14;;;;;;;;;;;;;;;-140.72;86.35;52488.25;6278275;22;19947;-68
2023/08/22 00:44:40;;;;;;;;;;;;;;;-140.72;86.40;52510.59;6278049;22;19943;-68
2023/08/22 00:47:06;;;;;;;;;;;;;;;-140.72;88.53;52494.34;6278289;22;19918;-68
2023/08/22 00:49:31;;;;;;;;;;;;;;;-140.72;88.41;52514.63;6278456;22;19990;-68
2023/08/22 00:51:59;;;;;;;;;;;;;;;-140.72;91.15;52492.31;6277928;22;19915;-68
2023/08/22 00:54:28;;;;;;;;;;;;;;;-140.72;94.28;52524.78;6276763;22;19947;-68
2023/08/22 00:56:53;;;;;;;;;;;;;;;-140.72;98.33;52528.84;6276808;22;20258;-68
2023/08/22 00:59:19;;;;;;;;;;;;;;;-140.72;100.00;52508.56;6278240;22;19911;-68
2023/08/22 01:01:45;;;;;;;;;;;;;;;-140.72;100.00;52492.31;6277910;22;19911;-68
2023/08/22 01:04:10;;;;;;;;;;;;;;;-140.72;100.00;52512.59;6277783;22;20243;-68
2023/08/22 01:06:38;;;;;;;;;;;;;;;-140.72;100.00;52512.59;6276359;22;19911;-68
2023/08/22 01:09:14;;;;;;;;;;;;;;;-140.72;100.00;52500.44;6277499;22;20225;-68
2023/08/22 01:11:41;;;;;;;;;;;;;;;-140.72;100.00;52532.91;6276198;22;19911;-67
2023/08/22 01:14:09;;;;;;;;;;;;;;;-140.72;100.00;52543.03;6277748;22;20014;-67
2023/08/22 01:16:35;;;;;;;;;;;;;;;-140.72;100.00;52526.81;6276241;22;20093;-67
2023/08/22 01:19:03;;;;;;;;;;;;;;;-140.72;100.00;52504.50;6276187;22;20243;-67
2023/08/22 01:21:29;;;;;;;;;;;;;;;-140.72;100.00;52541.03;6278510;22;19972;-69
2023/08/22 01:23:54;;;;;;;;;;;;;;;-140.72;100.00;52514.63;6276588;22;19911;-68
2023/08/22 01:26:19;;;;;;;;;;;;;;;-140.72;100.00;52500.44;6277999;22;19912;-68
2023/08/22 01:28:52;;;;;;;;;;;;;;;-140.72;100.00;52530.88;6276140;22;19911;-67
2023/08/22 01:31:31;;;;;;;;;;;;;;;-140.72;100.00;52528.84;6276502;22;20247;-68
2023/08/22 01:34:05;;;;;;;;;;;;;;;-140.72;100.00;52524.78;6304428;22;19973;-67
2023/08/22 01:36:46;;;;;;;;;;;;;;;-140.72;100.00;52530.88;6277957;22;19986;-68
2023/08/22 01:39:12;;;;;;;;;;;;;;;-140.72;100.00;52530.88;6278346;22;19934;-68
2023/08/22 01:41:38;;;;;;;;;;;;;;;-140.72;100.00;52528.84;6301694;22;20286;-68
2023/08/22 01:44:03;;;;;;;;;;;;;;;-140.72;100.00;52545.06;6277124;22;19986;-68
2023/08/22 01:46:29;;;;;;;;;;;;;;;-140.72;100.00;52551.16;6277948;22;19911;-68
2023/08/22 01:48:54;;;;;;;;;;;;;;;-140.72;100.00;52510.59;6276125;22;20358;-68
2023/08/22 01:51:20;;;;;;;;;;;;;;;-140.72;100.00;52498.41;6277254;22;19911;-68
2023/08/22 01:53:45;;;;;;;;;;;;;;;-140.72;100.00;52547.09;6277069;22;20239;-69
2023/08/22 01:56:10;;;;;;;;;;;;;;;-140.72;100.00;52534.94;6275864;22;20290;-68
2023/08/22 01:58:35;;;;;;;;;;;;;;;-140.72;100.00;52575.50;6277322;22;20474;-68
2023/08/22 02:01:11;;;;;;;;;;;;;;;-140.72;100.00;52547.09;6277197;22;19911;-69
2023/08/22 02:03:36;;;;;;;;;;;;;;;-140.72;100.00;52539.00;6275896;22;19934;-68
2023/08/22 02:06:03;;;;;;;;;;;;;;;-140.72;100.00;52541.03;6275521;22;20324;-68
2023/08/22 02:08:28;;;;;;;;;;;;;;;-140.72;100.00;52543.03;6276012;22;19967;-68
2023/08/22 02:11:02;;;;;;;;;;;;;;;-140.72;100.00;52528.84;6276118;22;19911;-68
2023/08/22 02:13:27;;;;;;;;;;;;;;;-140.72;100.00;52557.25;6277563;22;19915;-69
2023/08/22 02:15:52;;;;;;;;;;;;;;;-140.72;100.00;52547.09;6277764;22;19912;-69
2023/08/22 02:18:17;;;;;;;;;;;;;;;-140.72;100.00;52526.81;6275658;22;19919;-68
2023/08/22 02:20:43;;;;;;;;;;;;;;;-140.72;100.00;52541.03;6300946;22;19911;-68
2023/08/22 02:23:08;;;;;;;;;;;;;;;-140.72;100.00;52569.44;6275501;22;19918;-68
2023/08/22 02:25:34;;;;;;;;;;;;;;;-140.72;100.00;52534.94;6301669;22;19911;-68
2023/08/22 02:28:01;;;;;;;;;;;;;;;-140.72;100.00;52573.50;6277216;22;19911;-68
2023/08/22 02:30:26;;;;;;;;;;;;;;;-140.72;100.00;52577.53;6276952;22;20312;-68
2023/08/22 02:32:51;;;;;;;;;;;;;;;-140.72;100.00;52571.47;6276692;22;19912;-68
2023/08/22 02:35:17;;;;;;;;;;;;;;;-140.72;100.00;52553.19;6301012;22;20328;-68
2023/08/22 02:37:42;;;;;;;;;;;;;;;-140.72;100.00;52539.00;6276915;22;20293;-69
2023/08/22 02:40:13;;;;;;;;;;;;;;;-140.72;100.00;52536.97;6277320;22;19917;-69
2023/08/22 02:42:38;;;;;;;;;;;;;;;-140.72;100.00;52561.31;6277366;22;20236;-68
2023/08/22 02:45:05;;;;;;;;;;;;;;;-140.72;100.00;52551.16;6300754;22;19911;-69
2023/08/22 02:47:41;;;;;;;;;;;;;;;-140.72;100.00;52573.50;6276241;22;19911;-69
2023/08/22 02:50:07;;;;;;;;;;;;;;;-140.72;100.00;52561.31;6276909;22;19993;-68
2023/08/22 02:52:32;;;;;;;;;;;;;;;-140.72;100.00;52585.66;6275051;22;19962;-68
2023/08/22 02:55:01;;;;;;;;;;;;;;;-140.72;100.00;52551.16;6276834;22;19911;-68
2023/08/22 02:57:27;;;;;;;;;;;;;;;-140.72;100.00;52583.63;6277336;22;19994;-68
2023/08/22 02:59:52;;;;;;;;;;;;;;;-140.72;100.00;52569.44;6275469;22;20316;-68
2023/08/22 03:02:17;;;;;;;;;;;;;;;-140.72;100.00;52573.50;6276687;22;19970;-69
2023/08/22 03:04:43;;;;;;;;;;;;;;;-140.72;100.00;52569.44;6276478;22;19911;-69
2023/08/22 03:07:11;;;;;;;;;;;;;;;-140.72;100.00;52593.78;6277165;22;20010;-69
2023/08/22 03:09:38;;;;;;;;;;;;;;;-140.72;100.00;52547.09;6276554;22;19922;-70
2023/08/22 03:12:03;;;;;;;;;;;;;;;-140.72;100.00;52597.84;6276558;22;19912;-68
2023/08/22 03:14:29;;;;;;;;;;;;;;;-140.72;100.00;52543.03;6277054;22;19933;-68
2023/08/22 03:16:54;;;;;;;;;;;;;;;-140.72;100.00;52569.44;6276701;22;19911;-68
2023/08/22 03:19:19;;;;;;;;;;;;;;;-140.72;100.00;52573.50;6276915;22;19911;-69
2023/08/22 03:21:44;;;;;;;;;;;;;;;-140.72;100.00;52624.22;6276482;22;20313;-68
2023/08/22 03:24:10;;;;;;;;;;;;;;;-140.72;100.00;52585.66;6277069;22;19918;-68
2023/08/22 03:26:35;;;;;;;;;;;;;;;-140.72;100.00;52555.22;6274892;22;19915;-69
2023/08/22 03:29:00;;;;;;;;;;;;;;;-140.72;100.00;52589.72;6277608;22;19915;-68
2023/08/22 03:31:26;;;;;;;;;;;;;;;-140.72;100.00;52595.81;6277594;22;19918;-68
2023/08/22 03:33:51;;;;;;;;;;;;;;;-140.72;100.00;52567.41;6276846;22;19949;-68
2023/08/22 03:36:16;;;;;;;;;;;;;;;-140.72;100.00;52585.66;6300808;22;19957;-68
2023/08/22 03:38:41;;;;;;;;;;;;;;;-140.72;100.00;52545.06;6276917;22;19942;-68
2023/08/22 03:41:07;;;;;;;;;;;;;;;-140.72;100.00;52607.97;6276914;22;19912;-68
2023/08/22 03:43:32;;;;;;;;;;;;;;;-140.72;100.00;52618.13;6277081;22;19957;-68
2023/08/22 03:45:57;;;;;;;;;;;;;;;-140.72;100.00;52575.50;6276854;22;20002;-69
2023/08/22 03:48:22;;;;;;;;;;;;;;;-140.72;100.00;52618.13;6277161;22;19911;-68
2023/08/22 03:50:53;;;;;;;;;;;;;;;-140.72;100.00;52557.25;6276672;22;20714;-68
2023/08/22 03:53:18;;;;;;;;;;;;;;;-140.72;100.00;52565.38;6277010;22;19911;-69
2023/08/22 03:55:43;;;;;;;;;;;;;;;-140.72;100.00;52557.25;6276290;22;19933;-68
2023/08/22 03:58:09;;;;;;;;;;;;;;;-140.72;100.00;52601.91;6276355;22;19911;-68
2023/08/22 04:00:35;;;;;;;;;;;;;;;-140.72;100.00;52575.50;6276402;22;20300;-68
2023/08/22 04:03:00;;;;;;;;;;;;;;;-140.72;100.00;52597.84;6276552;22;19917;-68
2023/08/22 04:05:25;;;;;;;;;;;;;;;-140.72;100.00;52595.81;6276265;22;19986;-68
2023/08/22 04:07:51;;;;;;;;;;;;;;;-140.72;100.00;52603.94;6276521;22;19991;-68
2023/08/22 04:10:19;;;;;;;;;;;;;;;-140.72;100.00;52601.91;6300922;22;20002;-68
2023/08/22 04:12:45;;;;;;;;;;;;;;;-140.72;100.00;52589.72;6276856;22;20328;-68
2023/08/22 04:15:11;;;;;;;;;;;;;;;-140.72;100.00;52599.88;6276841;22;19997;-68
2023/08/22 04:17:38;;;;;;;;;;;;;;;-140.72;100.00;52549.13;6280263;22;19969;-75
2023/08/22 04:20:04;;;;;;;;;;;;;;;-140.72;100.00;52583.63;6278463;22;19911;-74
2023/08/22 04:22:31;;;;;;;;;;;;;;;-140.72;100.00;52567.41;6276796;22;19934;-76
2023/08/22 04:24:56;;;;;;;;;;;;;;;-140.72;100.00;52545.06;6279036;22;20478;-76
2023/08/22 04:27:22;;;;;;;;;;;;;;;-140.72;100.00;52577.53;6276959;22;19919;-75
2023/08/22 04:29:47;;;;;;;;;;;;;;;-140.72;100.00;52573.50;6276780;22;20361;-75
2023/08/22 04:32:12;;;;;;;;;;;;;;;-140.72;100.00;52612.03;6278693;22;20329;-78
2023/08/22 04:34:37;;;;;;;;;;;;;;;-140.72;100.00;52601.91;6284065;22;19911;-77
2023/08/22 04:37:03;;;;;;;;;;;;;;;-140.72;100.00;52581.59;6285183;22;20040;-78
2023/08/22 04:39:28;;;;;;;;;;;;;;;-140.72;100.00;52565.38;6285860;22;19954;-80
2023/08/22 04:41:53;;;;;;;;;;;;;;;-140.72;100.00;52583.63;6289641;22;19926;-77
2023/08/22 04:44:18;;;;;;;;;;;;;;;-140.72;100.00;52595.81;6289724;22;19911;-79
2023/08/22 04:46:44;;;;;;;;;;;;;;;-140.72;100.00;52581.59;6283199;22;19918;-80
2023/08/22 04:49:09;;;;;;;;;;;;;;;-140.72;100.00;52569.44;6282402;22;20327;-79
2023/08/22 04:51:34;;;;;;;;;;;;;;;-140.72;100.00;52597.84;6279616;22;19917;-77
2023/08/22 04:53:59;;;;;;;;;;;;;;;-140.72;100.00;52581.59;6278525;22;19956;-77
2023/08/22 04:56:24;;;;;;;;;;;;;;;-140.72;100.00;52549.13;6279141;22;19911;-78
2023/08/22 04:58:51;;;;;;;;;;;;;;;-140.72;100.00;52614.06;6279756;22;19911;-76
2023/08/22 05:01:16;;;;;;;;;;;;;;;-140.72;100.00;52597.84;6279948;22;19922;-76
2023/08/22 05:03:41;;;;;;;;;;;;;;;-140.72;100.00;52614.06;6278810;22;19915;-76
2023/08/22 05:06:06;;;;;;;;;;;;;;;-140.72;100.00;52605.94;6277114;22;19923;-76
2023/08/22 05:08:32;;;;;;;;;;;;;;;-140.72;100.00;52618.13;6279167;22;19945;-69
2023/08/22 05:10:57;;;;;;;;;;;;;;;-140.72;100.00;52565.38;6277720;22;19911;-68
2023/08/22 05:13:22;;;;;;;;;;;;;;;-140.72;100.00;52581.59;6277626;22;19992;-68
2023/08/22 05:15:47;;;;;;;;;;;;;;;-140.72;100.00;52593.78;6301535;22;19915;-68
2023/08/22 05:18:13;;;;;;;;;;;;;;;-140.72;100.00;52549.13;6277086;22;19994;-68
2023/08/22 05:20:41;;;;;;;;;;;;;;;-140.72;100.00;52573.50;6277139;22;19911;-68
2023/08/22 05:23:06;;;;;;;;;;;;;;;-140.72;100.00;52514.63;6277207;22;19915;-67
2023/08/22 05:25:31;;;;;;;;;;;;;;;-140.72;100.00;52561.31;6277492;22;19934;-71
2023/08/22 05:27:57;;;;;;;;;;;;;;;-140.72;100.00;52577.53;6276558;22;19942;-68
2023/08/22 05:30:22;;;;;;;;;;;;;;;-140.72;100.00;52561.31;6275827;22;19922;-68
2023/08/22 05:32:47;;;;;;;;;;;;;;;-140.72;100.00;52559.28;6301742;22;19954;-67
2023/08/22 05:35:12;;;;;;;;;;;;;;;-140.72;100.00;52528.84;6277325;22;19990;-68
2023/08/22 05:37:38;;;;;;;;;;;;;;;-140.72;100.00;52541.03;6276952;22;19947;-68
2023/08/22 05:40:06;;;;;;;;;;;;;;;-140.72;100.00;52539.00;6276886;22;19965;-67
2023/08/22 05:42:31;;;;;;;;;;;;;;;-140.72;100.00;52543.03;6277165;22;19911;-67
2023/08/22 05:44:56;;;;;;;;;;;;;;;-140.72;100.00;52514.63;6277557;22;19915;-70
2023/08/22 05:47:21;;;;;;;;;;;;;;;-140.72;100.00;52553.19;6277314;22;19911;-70
2023/08/22 05:49:47;;;;;;;;;;;;;;;-140.72;100.00;52516.66;6277668;22;19911;-69
2023/08/22 05:52:12;;;;;;;;;;;;;;;-140.72;100.00;52536.97;6277797;22;20321;-68
2023/08/22 05:54:37;;;;;;;;;;;;;;;-140.72;100.00;52543.03;6301872;22;19918;-68
2023/08/22 05:57:02;;;;;;;;;;;;;;;-140.72;100.00;52524.78;6278050;22;19917;-70
2023/08/22 05:59:28;;;;;;;;;;;;;;;-140.72;100.00;52520.72;6278095;22;19950;-70
2023/08/22 06:01:53;;;;;;;;;;;;;;;-140.72;100.00;52500.44;6276191;22;20276;-70
2023/08/22 06:04:19;;;;;;;;;;;;;;;-140.72;100.00;52526.81;6276935;22;19922;-70
2023/08/22 06:06:45;;;;;;;;;;;;;;;-140.72;100.00;52524.78;6277312;22;19953;-69
2023/08/22 06:09:22;;;;;;;;;;;;;;;-140.72;100.00;52508.56;6275781;22;19914;-70
2023/08/22 06:11:48;;;;;;;;;;;;;;;-140.72;100.00;52541.03;6276890;22;19911;-70
2023/08/22 06:14:13;;;;;;;;;;;;;;;-140.72;100.00;52486.22;6301342;22;19969;-70
2023/08/22 06:16:39;;;;;;;;;;;;;;;-140.72;100.00;52528.84;6276790;22;19964;-68
2023/08/22 06:19:04;;;;;;;;;;;;;;;-140.72;100.00;52512.59;6277380;22;19950;-68
2023/08/22 06:21:30;;;;;;;;;;;;;;;-140.72;100.00;52528.84;6277082;22;20370;-68
2023/08/22 06:23:56;;;;;;;;;;;;;;;-140.72;100.00;52496.38;6277492;22;19915;-68
2023/08/22 06:26:22;;;;;;;;;;;;;;;-140.72;100.00;52524.78;6275439;22;19912;-68
2023/08/22 06:28:47;;;;;;;;;;;;;;;-140.72;100.00;52492.31;6275378;22;19919;-68
2023/08/22 06:31:13;;;;;;;;;;;;;;;-140.72;100.00;52559.28;6277195;22;19918;-68
2023/08/22 06:33:38;;;;;;;;;;;;;;;-140.72;100.00;52524.78;6277012;22;19919;-68
2023/08/22 06:36:03;;;;;;;;;;;;;;;-140.72;100.00;52480.16;6277139;22;19938;-68
2023/08/22 06:38:28;;;;;;;;;;;;;;;-140.72;100.00;52512.59;6301641;22;19937;-68
2023/08/22 06:40:54;;;;;;;;;;;;;;;-140.72;100.00;52480.16;6274915;22;19947;-69
2023/08/22 06:43:19;;;;;;;;;;;;;;;-140.72;100.00;52510.59;6301346;22;19918;-69
2023/08/22 06:45:44;;;;;;;;;;;;;;;-140.72;100.00;52502.47;6276971;22;19957;-69
2023/08/22 06:48:10;;;;;;;;;;;;;;;-140.72;100.00;52520.72;6277135;22;19986;-68
2023/08/22 06:50:35;;;;;;;;;;;;;;;-140.72;100.00;52484.19;6276896;22;20342;-68
2023/08/22 06:53:00;;;;;;;;;;;;;;;-140.72;100.00;52494.34;6276943;22;20247;-67
2023/08/22 06:55:26;;;;;;;;;;;;;;;-140.72;100.00;52498.41;6276858;22;19915;-67
2023/08/22 06:57:51;;;;;;;;;;;;;;;-140.72;100.00;52459.84;6277078;22;19988;-68
2023/08/22 07:00:16;;;;;;;;;;;;;;;-140.72;100.00;52470.00;6276544;22;20013;-68
2023/08/22 07:02:43;;;;;;;;;;;;;;;-140.72;100.00;52425.34;6277207;22;19912;-68
2023/08/22 07:05:08;;;;;;;;;;;;;;;-140.72;100.00;52463.91;6276969;22;20331;-68
2023/08/22 07:07:34;;;;;;;;;;;;;;;-140.72;100.00;52518.69;6276950;22;20269;-68
2023/08/22 07:09:59;;;;;;;;;;;;;;;-140.72;100.00;52484.19;6276894;22;19911;-67
2023/08/22 07:12:24;;;;;;;;;;;;;;;-140.72;100.00;52467.97;6276681;22;20283;-68
2023/08/22 07:14:49;;;;;;;;;;;;;;;-140.72;100.00;52461.88;6276824;22;19911;-68
2023/08/22 07:17:15;;;;;;;;;;;;;;;-140.72;100.00;52451.72;6277029;22;20341;-67
2023/08/22 07:19:40;;;;;;;;;;;;;;;-140.72;100.00;52435.50;6276984;22;20248;-68
2023/08/22 07:22:05;;;;;;;;;;;;;;;-140.72;100.00;52439.56;6276781;22;20320;-68
2023/08/22 07:24:30;;;;;;;;;;;;;;;-140.72;100.00;52417.25;6278480;22;20254;-69
2023/08/22 07:26:56;;;;;;;;;;;;;;;-140.72;100.00;52431.44;6278256;22;20411;-68
2023/08/22 07:29:21;;;;;;;;;;;;;;;-140.72;100.00;52449.72;6276545;22;19921;-68
2023/08/22 07:31:46;;;;;;;;;;;;;;;-140.72;100.00;52433.47;6276815;22;19969;-69
2023/08/22 07:34:11;;;;;;;;;;;;;;;-140.72;100.00;52437.53;6276698;22;19907;-69
2023/08/22 07:36:37;;;;;;;;;;;;;;;-140.72;100.00;52443.63;6276713;22;20381;-68
2023/08/22 07:39:03;;;;;;;;;;;;;;;-140.72;100.00;52423.31;6277121;22;20320;-68
2023/08/22 07:41:28;;;;;;;;;;;;;;;-140.72;100.00;52394.91;6277061;22;20378;-67
2023/08/22 07:43:53;;;;;;;;;;;;;;;-140.72;100.00;52421.28;6276675;22;20297;-67
2023/08/22 07:46:19;;;;;;;;;;;;;;;-140.72;100.00;52390.84;6277046;22;19919;-67
2023/08/22 07:48:45;;;;;;;;;;;;;;;-140.72;100.00;52433.47;6277485;22;19911;-68
2023/08/22 07:51:10;;;;;;;;;;;;;;;-140.72;100.00;52437.53;6278437;22;19911;-67
2023/08/22 07:53:36;;;;;;;;;;;;;;;-140.72;100.00;52407.09;6303231;22;19918;-69
2023/08/22 07:56:01;;;;;;;;;;;;;;;-140.72;100.00;52429.41;6302811;22;19997;-68
2023/08/22 07:58:26;;;;;;;;;;;;;;;-140.72;100.00;52409.13;6278935;22;19923;-68
2023/08/22 08:00:51;;;;;;;;;;;;;;;-140.72;100.00;52405.06;6278744;22;19911;-68
2023/08/22 08:03:17;;;;;;;;;;;;;;;-140.72;100.00;52425.34;6278843;22;19997;-68
2023/08/22 08:05:42;;;;;;;;;;;;;;;-140.72;100.00;52403.03;6278753;22;19911;-68
2023/08/22 08:08:09;;;;;;;;;;;;;;;-140.72;100.00;52382.75;6278365;22;20346;-68
2023/08/22 08:10:35;;;;;;;;;;;;;;;-140.72;100.00;52372.59;6278807;22;19957;-68
2023/08/22 08:13:00;;;;;;;;;;;;;;;-140.72;94.26;52376.66;6278848;22;19912;-68
2023/08/22 08:15:26;;;;;;;;;;;;;;;-140.72;87.08;52366.50;6278455;22;19942;-68
2023/08/22 08:17:51;;;;;;;;;;;;;;;-140.72;83.82;52388.84;6302923;22;19919;-68
2023/08/22 08:20:16;;;;;;;;;;;;;;;-140.72;61.22;52386.81;6277123;22;19990;-67
2023/08/22 08:22:41;;;;;;;;;;;;;;;-140.72;47.30;52382.75;6277043;22;19915;-68
2023/08/22 08:25:07;;;;;;;;;;;;;;;-140.72;47.59;52356.38;6276754;22;19917;-68
2023/08/22 08:27:32;;;;;;;;;;;;;;;-140.72;43.50;52390.84;6276720;22;19912;-68
2023/08/22 08:29:57;;;;;;;;;;;;;;;-140.72;42.20;52378.69;6276622;22;19922;-68
2023/08/22 08:32:23;;;;;;;;;;;;;;;-140.72;39.93;52384.78;6278710;22;20250;-68
2023/08/22 08:34:49;;;;;;;;;;;;;;;-140.72;36.04;52362.44;6279019;22;19911;-68
2023/08/22 08:37:14;;;;;;;;;;;;;;;-140.72;19.82;52386.81;6277098;22;20320;-68
2023/08/22 08:39:39;;;;;;;;;;;;;;;-140.72;0.00;52384.78;6278659;22;20316;-68
2023/08/22 08:42:12;;;;;;;;;;;;;;;-140.72;0.00;52378.69;6278634;22;19911;-68
2023/08/22 08:44:37;;;;;;;;;;;;;;;-140.72;0.00;52350.28;6278578;22;20290;-68
2023/08/22 08:47:03;;;;;;;;;;;;;;;-140.72;0.00;52336.06;6278476;22;20001;-68
2023/08/22 08:49:32;;;;;;;;;;;;;;;-140.72;0.00;52338.09;6278488;22;19911;-68
2023/08/22 08:51:59;;;;;;;;;;;;;;;-140.72;0.00;52309.69;6278828;22;19922;-68
2023/08/22 08:54:26;;;;;;;;;;;;;;;-140.72;0.00;52344.19;6278264;22;19912;-68
2023/08/22 08:56:52;;;;;;;;;;;;;;;-140.72;0.00;52342.16;6278692;22;19911;-68
2023/08/22 08:59:17;;;;;;;;;;;;;;;-140.72;0.00;52325.94;6302289;22;20213;-68
2023/08/22 09:01:43;;;;;;;;;;;;;;;-140.72;0.00;52309.69;6276840;22;20006;-68
2023/08/22 09:04:09;;;;;;;;;;;;;;;-140.72;0.00;52248.81;6278353;22;20364;-68
2023/08/22 09:06:35;;;;;;;;;;;;;;;-140.72;0.00;52301.59;6278318;22;19972;-68
2023/08/22 09:09:01;;;;;;;;;;;;;;;-140.72;0.00;52350.28;6278500;22;19919;-68
2023/08/22 09:11:27;;;;;;;;;;;;;;;-140.72;0.00;52309.69;6302592;22;20351;-69
2023/08/22 09:13:53;;;;;;;;;;;;;;;-140.72;0.00;52293.47;6276191;22;19912;-69
2023/08/22 09:16:18;;;;;;;;;;;;;;;-140.72;0.00;52313.75;6278429;22;19919;-69
2023/08/22 09:18:43;;;;;;;;;;;;;;;-140.72;0.00;52305.63;6277735;22;20244;-69
2023/08/22 09:21:10;;;;;;;;;;;;;;;-140.72;0.00;52313.75;6279583;22;19938;-68
2023/08/22 09:23:35;;;;;;;;;;;;;;;-140.72;0.00;52305.63;6278167;22;19919;-68
2023/08/22 09:26:02;;;;;;;;;;;;;;;-140.72;0.00;52295.50;6276418;22;19987;-68
2023/08/22 09:28:27;;;;;;;;;;;;;;;-140.72;0.00;52291.44;6276321;22;19912;-68
2023/08/22 09:30:54;;;;;;;;;;;;;;;-140.72;0.00;52319.84;6277408;22;20351;-69
2023/08/22 09:33:19;;;;;;;;;;;;;;;-140.72;0.00;52321.88;6275412;22;19965;-68
2023/08/22 09:35:45;;;;;;;;;;;;;;;-140.72;0.00;52303.59;6278366;22;20386;-68
2023/08/22 09:38:10;;;;;;;;;;;;;;;-140.72;0.00;52311.72;6276100;22;19911;-68
2023/08/22 09:40:48;;;;;;;;;;;;;;;-140.72;0.00;52297.53;6277184;22;19918;-68
2023/08/22 09:43:13;;;;;;;;;;;;;;;-140.72;0.00;52254.91;6277337;22;20002;-68
2023/08/22 09:45:42;;;;;;;;;;;;;;;-140.72;0.00;52228.53;6277346;22;19938;-68
2023/08/22 09:48:08;;;;;;;;;;;;;;;-140.72;0.00;52265.06;6301601;22;19915;-68
2023/08/22 09:50:36;;;;;;;;;;;;;;;-140.72;0.00;52230.56;6277436;22;20248;-68
2023/08/22 09:53:02;;;;;;;;;;;;;;;-140.72;0.00;52283.31;6277431;22;19912;-68
2023/08/22 09:55:28;;;;;;;;;;;;;;;-140.72;0.00;52285.34;6277274;22;19915;-68
2023/08/22 09:57:53;;;;;;;;;;;;;;;-140.72;0.00;52281.28;6275406;22;19915;-68
2023/08/22 10:00:18;;;;;;;;;;;;;;;-140.72;0.00;52289.41;6276928;22;20221;-68
2023/08/22 10:02:45;;;;;;;;;;;;;;;-140.72;0.00;52279.25;6276856;22;19912;-68
2023/08/22 10:05:12;;;;;;;;;;;;;;;-140.72;0.00;52285.34;6277040;22;19911;-68
2023/08/22 10:07:37;;;;;;;;;;;;;;;-140.72;0.00;52299.56;6277006;22;19922;-68
2023/08/22 10:10:04;;;;;;;;;;;;;;;-140.72;0.00;52307.66;6277153;22;19994;-68
2023/08/22 10:12:29;;;;;;;;;;;;;;;-140.72;0.00;52311.72;6276895;22;19946;-68
2023/08/22 10:14:59;;;;;;;;;;;;;;;-140.72;0.00;52305.63;6276979;22;20347;-68
2023/08/22 10:17:27;;;;;;;;;;;;;;;-140.72;0.00;52315.78;6277143;22;19911;-68
2023/08/22 10:19:59;;;;;;;;;;;;;;;-140.72;0.00;52317.81;6276619;22;19915;-68
2023/08/22 10:22:30;;;;;;;;;;;;;;;-140.72;0.00;52293.47;6276970;22;19911;-68
2023/08/22 10:25:01;;;;;;;;;;;;;;;-140.72;0.00;52269.13;6277025;22;20324;-69
2023/08/22 10:27:27;;;;;;;;;;;;;;;-140.72;0.00;52309.69;6277362;22;19911;-68
2023/08/22 10:30:10;;;;;;;;;;;;;;;-140.72;0.00;52293.47;6276585;22;19915;-69
2023/08/22 10:32:36;;;;;;;;;;;;;;;-140.72;0.00;52313.75;6277498;22;19964;-68
2023/08/22 10:35:03;;;;;;;;;;;;;;;-140.72;0.00;52334.03;6277323;22;19919;-68
2023/08/22 10:37:28;;;;;;;;;;;;;;;-140.72;0.00;52330.00;6277314;22;20311;-68
2023/08/22 10:39:57;;;;;;;;;;;;;;;-140.72;0.00;52283.31;6301363;22;19912;-68
2023/08/22 10:42:23;;;;;;;;;;;;;;;-140.72;0.00;52309.69;6277261;22;19919;-68
2023/08/22 10:44:49;;;;;;;;;;;;;;;-140.72;0.00;52297.53;6277059;22;19911;-68
2023/08/22 10:47:18;;;;;;;;;;;;;;;-140.72;0.00;52307.66;6276874;22;19954;-68
2023/08/22 10:49:47;;;;;;;;;;;;;;;-140.72;0.00;52285.34;6277067;22;19990;-68
2023/08/22 10:52:12;;;;;;;;;;;;;;;-140.72;0.00;52281.28;6275124;22;19911;-68
2023/08/22 10:54:56;;;;;;;;;;;;;;;-140.72;0.00;52293.47;6276988;22;20060;-68
2023/08/22 10:57:22;;;;;;;;;;;;;;;-140.72;0.00;52311.72;6276777;22;19912;-68
2023/08/22 10:59:59;;;;;;;;;;;;;;;-140.72;0.00;52307.66;6276769;22;19934;-68
2023/08/22 11:02:28;;;;;;;;;;;;;;;-140.72;0.00;52299.56;6276391;22;19911;-68
2023/08/22 11:04:57;;;;;;;;;;;;;;;-140.72;0.00;52279.25;6276218;22;19934;-68
2023/08/22 11:07:23;;;;;;;;;;;;;;;-140.72;0.00;52317.81;6274762;22;19961;-68
2023/08/22 11:09:49;;;;;;;;;;;;;;;-140.72;0.00;52287.38;6276665;22;19915;-68
2023/08/22 11:12:18;;;;;;;;;;;;;;;-140.72;0.00;52265.06;6276434;22;19918;-68
2023/08/22 11:14:44;;;;;;;;;;;;;;;-140.72;0.00;52336.06;6301884;22;20220;-68
2023/08/22 11:17:12;;;;;;;;;;;;;;;-140.72;0.00;52313.75;6277424;22;19918;-69
2023/08/22 11:19:37;;;;;;;;;;;;;;;-140.72;0.00;52330.00;6277638;22;20004;-68
2023/08/22 11:22:02;;;;;;;;;;;;;;;-140.72;0.00;52295.50;6276619;22;19915;-68
2023/08/22 11:24:29;;;;;;;;;;;;;;;-140.72;0.00;52279.25;6277354;22;20291;-68
2023/08/22 11:26:55;;;;;;;;;;;;;;;-140.72;0.00;52330.00;6278825;22;19912;-68
2023/08/22 11:29:22;;;;;;;;;;;;;;;-140.72;0.00;52273.19;6276983;22;19922;-67
2023/08/22 11:31:48;;;;;;;;;;;;;;;-140.72;0.00;52293.47;6278932;22;19915;-68
2023/08/22 11:34:13;;;;;;;;;;;;;;;-140.72;0.00;52242.75;6278611;22;20335;-68
2023/08/22 11:36:39;;;;;;;;;;;;;;;-140.72;0.00;52277.22;6278601;22;19918;-68
2023/08/22 11:39:07;;;;;;;;;;;;;;;-140.72;0.00;52311.72;6278647;22;19911;-67
2023/08/22 11:41:54;;;;;;;;;;;;;;;-140.72;0.00;52267.09;6278639;22;19915;-68
2023/08/22 11:44:21;;;;;;;;;;;;;;;-140.72;0.00;52254.91;6278391;22;19911;-68
2023/08/22 11:46:49;;;;;;;;;;;;;;;-140.72;0.00;52317.81;6276683;22;19945;-68
2023/08/22 11:49:14;;;;;;;;;;;;;;;-140.72;0.00;52301.59;6278245;22;19912;-68
2023/08/22 11:51:42;;;;;;;;;;;;;;;-140.72;0.00;52297.53;6278678;22;20291;-68
2023/08/22 11:54:07;;;;;;;;;;;;;;;-140.72;0.00;52305.63;6277017;22;19947;-69
2023/08/22 11:56:32;;;;;;;;;;;;;;;-140.72;0.00;52330.00;6302919;22;19918;-69
2023/08/22 11:58:58;;;;;;;;;;;;;;;-140.72;0.00;52325.94;6278476;22;19915;-67
2023/08/22 12:01:24;;;;;;;;;;;;;;;-140.72;0.00;52323.91;6278244;22;19988;-68
2023/08/22 12:03:53;;;;;;;;;;;;;;;-140.72;0.00;52325.94;6278243;22;19911;-69
2023/08/22 12:06:18;;;;;;;;;;;;;;;-140.72;0.00;52307.66;6276438;22;19911;-68
2023/08/22 12:08:53;;;;;;;;;;;;;;;-140.72;0.00;52319.84;6276814;22;20591;-68
2023/08/22 12:11:22;;;;;;;;;;;;;;;-140.72;0.00;52301.59;6278369;22;19911;-68
2023/08/22 12:13:47;;;;;;;;;;;;;;;-140.72;0.00;52311.72;6278046;22;19911;-68
2023/08/22 12:16:13;;;;;;;;;;;;;;;-140.72;0.00;52258.97;6302606;22;20366;-68
2023/08/22 12:18:39;;;;;;;;;;;;;;;-140.72;0.00;52200.13;6278547;22;19939;-68